Brownsville, Washington
Current Conditions -  °F | °C
As of 11:15 PM on Saturday 25 Oct 2014 (Local Time) from KPWT Reporting Station
Clear Clear  
Wind Chill: 50°   Ceiling: Unl
Heat Index: 50°   Visibility: 10mi
Dew Point: 45°   Wind: 18mph
Humidity: 82%   Direction: 200°SSW
Pressure: 29.7"   Gusts: 29mph
Location:  47.5964°N, 122.62°W
Report Text: KPWT 260615Z AUTO 20016G25KT 10SM CLR 10/07 A2970 RMK AO1
Loading
Personal Weather Stations






























Interactive Weather Map
Tropical Storm Tracking
New forecast layout! Learn more

10-Day Weather Forecast

Advertisements
Track Severe Weather on mobile